sensor_id;sensor_type;location;lat;lon;timestamp;pressure;altitude;pressure_sealevel;temperature;humidity
21817;BME280;13247;47.504;7.382;2024-01-10T00:02:39;98030.31;;;-1.12;100.00
21817;BME280;13247;47.504;7.382;2024-01-10T00:05:23;98032.06;;;-1.11;100.00
21817;BME280;13247;47.504;7.382;2024-01-10T00:08:08;98029.38;;;-1.15;100.00
21817;BME280;13247;47.504;7.382;2024-01-10T00:10:53;98031.22;;;-1.10;100.00
21817;BME280;13247;47.504;7.382;2024-01-10T00:13:38;98034.63;;;-1.11;100.00
21817;BME280;13247;47.504;7.382;2024-01-10T00:16:23;98027.28;;;-1.30;100.00
21817;BME280;13247;47.504;7.382;2024-01-10T00:19:07;98031.75;;;-1.23;100.00
21817;BME280;13247;47.504;7.382;2024-01-10T00:21:52;98035.00;;;-1.30;100.00
21817;BME280;13247;47.504;7.382;2024-01-10T00:24:37;98040.00;;;-1.02;100.00
21817;BME280;13247;47.504;7.382;2024-01-10T00:27:21;98031.31;;;-1.07;100.00
21817;BME280;13247;47.504;7.382;2024-01-10T00:30:07;98027.66;;;-1.16;100.00
21817;BME280;13247;47.504;7.382;2024-01-10T00:32:52;98032.03;;;-1.12;100.00
21817;BME280;13247;47.504;7.382;2024-01-10T00:35:36;98029.25;;;-0.86;100.00
21817;BME280;13247;47.504;7.382;2024-01-10T00:38:21;98013.56;;;-0.95;100.00
21817;BME280;13247;47.504;7.382;2024-01-10T00:41:06;98017.78;;;-1.32;100.00
21817;BME280;13247;47.504;7.382;2024-01-10T00:43:50;98029.84;;;-1.30;100.00
21817;BME280;13247;47.504;7.382;2024-01-10T00:46:35;98023.34;;;-1.16;100.00
21817;BME280;13247;47.504;7.382;2024-01-10T00:49:19;98020.59;;;-1.23;100.00
21817;BME280;13247;47.504;7.382;2024-01-10T00:52:05;98019.56;;;-1.30;100.00
21817;BME280;13247;47.504;7.382;2024-01-10T00:54:49;98009.44;;;-1.24;100.00
21817;BME280;13247;47.504;7.382;2024-01-10T00:57:34;98016.69;;;-1.08;100.00
21817;BME280;13247;47.504;7.382;2024-01-10T01:00:18;98010.53;;;-1.14;100.00
21817;BME280;13247;47.504;7.382;2024-01-10T01:03:03;98009.56;;;-1.18;100.00
21817;BME280;13247;47.504;7.382;2024-01-10T01:05:48;98004.91;;;-1.00;100.00
21817;BME280;13247;47.504;7.382;2024-01-10T01:08:33;98006.69;;;-1.30;100.00
21817;BME280;13247;47.504;7.382;2024-01-10T01:11:17;98007.34;;;-1.04;100.00
21817;BME280;13247;47.504;7.382;2024-01-10T01:14:02;98005.00;;;-1.62;100.00
21817;BME280;13247;47.504;7.382;2024-01-10T01:16:47;98020.25;;;-1.68;100.00
21817;BME280;13247;47.504;7.382;2024-01-10T01:19:31;98026.53;;;-1.58;100.00
21817;BME280;13247;47.504;7.382;2024-01-10T01:22:16;98037.56;;;-1.30;100.00
21817;BME280;13247;47.504;7.382;2024-01-10T01:25:00;98031.22;;;-1.42;100.00
21817;BME280;13247;47.504;7.382;2024-01-10T01:27:45;98041.84;;;-1.62;100.00
21817;BME280;13247;47.504;7.382;2024-01-10T01:30:29;98035.59;;;-1.40;100.00
21817;BME280;13247;47.504;7.382;2024-01-10T01:33:14;98051.09;;;-1.68;100.00
21817;BME280;13247;47.504;7.382;2024-01-10T01:35:58;98057.56;;;-1.51;100.00
21817;BME280;13247;47.504;7.382;2024-01-10T01:38:43;98054.72;;;-1.62;100.00
21817;BME280;13247;47.504;7.382;2024-01-10T01:41:28;98053.84;;;-1.62;100.00
21817;BME280;13247;47.504;7.382;2024-01-10T01:44:12;98048.19;;;-1.49;100.00
21817;BME280;13247;47.504;7.382;2024-01-10T01:46:57;98046.50;;;-1.80;100.00
21817;BME280;13247;47.504;7.382;2024-01-10T01:49:43;98059.91;;;-1.90;100.00
21817;BME280;13247;47.504;7.382;2024-01-10T01:52:30;98066.31;;;-1.76;100.00
21817;BME280;13247;47.504;7.382;2024-01-10T01:55:16;98056.22;;;-1.70;100.00
21817;BME280;13247;47.504;7.382;2024-01-10T01:58:00;98054.09;;;-1.84;100.00
21817;BME280;13247;47.504;7.382;2024-01-10T02:00:46;98062.34;;;-1.94;100.00
21817;BME280;13247;47.504;7.382;2024-01-10T02:03:34;98062.22;;;-1.99;100.00
21817;BME280;13247;47.504;7.382;2024-01-10T02:06:18;98069.28;;;-1.92;100.00
21817;BME280;13247;47.504;7.382;2024-01-10T02:09:03;98082.38;;;-1.83;100.00
21817;BME280;13247;47.504;7.382;2024-01-10T02:11:48;98082.06;;;-1.65;100.00
21817;BME280;13247;47.504;7.382;2024-01-10T02:14:33;98065.72;;;-1.67;100.00
21817;BME280;13247;47.504;7.382;2024-01-10T02:17:18;98057.34;;;-1.90;100.00
21817;BME280;13247;47.504;7.382;2024-01-10T02:20:13;98063.50;;;-1.85;100.00
21817;BME280;13247;47.504;7.382;2024-01-10T02:22:58;98070.19;;;-1.90;100.00
21817;BME280;13247;47.504;7.382;2024-01-10T02:25:43;98070.00;;;-1.66;100.00
21817;BME280;13247;47.504;7.382;2024-01-10T02:28:28;98065.13;;;-1.57;100.00
21817;BME280;13247;47.504;7.382;2024-01-10T02:31:13;98060.97;;;-1.52;100.00
21817;BME280;13247;47.504;7.382;2024-01-10T02:33:57;98064.97;;;-1.93;100.00
21817;BME280;13247;47.504;7.382;2024-01-10T02:36:42;98070.50;;;-1.79;100.00
21817;BME280;13247;47.504;7.382;2024-01-10T02:39:26;98062.44;;;-1.91;100.00
21817;BME280;13247;47.504;7.382;2024-01-10T02:42:11;98065.91;;;-1.89;100.00
21817;BME280;13247;47.504;7.382;2024-01-10T02:44:56;98054.38;;;-1.74;100.00
21817;BME280;13247;47.504;7.382;2024-01-10T02:47:41;98051.94;;;-1.69;100.00
21817;BME280;13247;47.504;7.382;2024-01-10T02:50:25;98051.75;;;-1.75;100.00
21817;BME280;13247;47.504;7.382;2024-01-10T02:53:10;98046.63;;;-2.05;100.00
21817;BME280;13247;47.504;7.382;2024-01-10T02:55:54;98039.50;;;-1.84;100.00
21817;BME280;13247;47.504;7.382;2024-01-10T02:58:39;98045.91;;;-1.71;100.00
21817;BME280;13247;47.504;7.382;2024-01-10T03:01:23;98040.06;;;-1.64;100.00
21817;BME280;13247;47.504;7.382;2024-01-10T03:04:08;98036.81;;;-1.58;100.00
21817;BME280;13247;47.504;7.382;2024-01-10T03:06:53;98030.09;;;-1.52;100.00
21817;BME280;13247;47.504;7.382;2024-01-10T03:09:37;98041.75;;;-1.65;100.00
21817;BME280;13247;47.504;7.382;2024-01-10T03:12:22;98056.41;;;-1.62;100.00
21817;BME280;13247;47.504;7.382;2024-01-10T03:15:07;98058.00;;;-1.67;100.00
21817;BME280;13247;47.504;7.382;2024-01-10T03:17:51;98035.91;;;-1.61;100.00
21817;BME280;13247;47.504;7.382;2024-01-10T03:20:36;98037.66;;;-1.58;100.00
21817;BME280;13247;47.504;7.382;2024-01-10T03:23:20;98037.41;;;-1.36;100.00
21817;BME280;13247;47.504;7.382;2024-01-10T03:26:06;98040.47;;;-1.50;100.00
21817;BME280;13247;47.504;7.382;2024-01-10T03:28:51;98035.72;;;-1.35;100.00
21817;BME280;13247;47.504;7.382;2024-01-10T03:31:35;98043.72;;;-1.56;100.00
21817;BME280;13247;47.504;7.382;2024-01-10T03:34:20;98042.66;;;-1.63;100.00
21817;BME280;13247;47.504;7.382;2024-01-10T03:37:05;98033.03;;;-1.40;100.00
21817;BME280;13247;47.504;7.382;2024-01-10T03:39:50;98034.75;;;-1.39;100.00
21817;BME280;13247;47.504;7.382;2024-01-10T03:42:34;98031.22;;;-1.42;100.00
21817;BME280;13247;47.504;7.382;2024-01-10T03:45:19;98039.88;;;-1.39;100.00
21817;BME280;13247;47.504;7.382;2024-01-10T03:48:07;98041.06;;;-1.26;100.00
21817;BME280;13247;47.504;7.382;2024-01-10T03:50:52;98038.50;;;-1.26;100.00
21817;BME280;13247;47.504;7.382;2024-01-10T03:53:37;98042.25;;;-1.14;100.00
21817;BME280;13247;47.504;7.382;2024-01-10T03:56:22;98046.28;;;-1.25;100.00
21817;BME280;13247;47.504;7.382;2024-01-10T03:59:06;98035.09;;;-1.27;100.00
21817;BME280;13247;47.504;7.382;2024-01-10T04:01:51;98031.59;;;-1.29;100.00
21817;BME280;13247;47.504;7.382;2024-01-10T04:04:37;98034.13;;;-1.30;100.00
21817;BME280;13247;47.504;7.382;2024-01-10T04:07:23;98033.72;;;-1.45;100.00
21817;BME280;13247;47.504;7.382;2024-01-10T04:10:08;98031.84;;;-1.52;100.00
21817;BME280;13247;47.504;7.382;2024-01-10T04:12:54;98028.84;;;-1.35;100.00
21817;BME280;13247;47.504;7.382;2024-01-10T04:15:39;98022.09;;;-1.31;100.00
21817;BME280;13247;47.504;7.382;2024-01-10T04:18:23;98029.75;;;-1.33;100.00
21817;BME280;13247;47.504;7.382;2024-01-10T04:21:08;98030.78;;;-1.26;100.00
21817;BME280;13247;47.504;7.382;2024-01-10T04:23:53;98038.63;;;-1.22;100.00
21817;BME280;13247;47.504;7.382;2024-01-10T04:26:38;98036.00;;;-1.25;100.00
21817;BME280;13247;47.504;7.382;2024-01-10T04:29:22;98022.09;;;-0.97;100.00
21817;BME280;13247;47.504;7.382;2024-01-10T04:32:07;98030.25;;;-1.15;100.00
21817;BME280;13247;47.504;7.382;2024-01-10T04:34:51;98032.94;;;-1.10;100.00
21817;BME280;13247;47.504;7.382;2024-01-10T04:37:36;98032.66;;;-1.21;100.00
21817;BME280;13247;47.504;7.382;2024-01-10T04:40:21;98037.72;;;-1.24;100.00
21817;BME280;13247;47.504;7.382;2024-01-10T04:43:05;98035.88;;;-1.29;100.00
21817;BME280;13247;47.504;7.382;2024-01-10T04:45:50;98030.25;;;-1.15;100.00
21817;BME280;13247;47.504;7.382;2024-01-10T04:48:34;98026.66;;;-1.21;100.00
21817;BME280;13247;47.504;7.382;2024-01-10T04:51:19;98037.25;;;-1.08;100.00
21817;BME280;13247;47.504;7.382;2024-01-10T04:54:04;98034.69;;;-1.08;100.00
21817;BME280;13247;47.504;7.382;2024-01-10T04:56:48;98031.59;;;-0.95;100.00
21817;BME280;13247;47.504;7.382;2024-01-10T04:59:33;98035.16;;;-0.90;100.00
21817;BME280;13247;47.504;7.382;2024-01-10T05:02:19;98031.69;;;-0.92;100.00
21817;BME280;13247;47.504;7.382;2024-01-10T05:05:04;98032.84;;;-0.79;100.00
21817;BME280;13247;47.504;7.382;2024-01-10T05:07:49;98027.94;;;-0.68;100.00
21817;BME280;13247;47.504;7.382;2024-01-10T05:10:35;98024.75;;;-0.94;100.00
21817;BME280;13247;47.504;7.382;2024-01-10T05:13:20;98023.56;;;-0.72;100.00
21817;BME280;13247;47.504;7.382;2024-01-10T05:16:05;98021.50;;;-0.87;100.00
21817;BME280;13247;47.504;7.382;2024-01-10T05:18:49;98034.91;;;-1.00;100.00
21817;BME280;13247;47.504;7.382;2024-01-10T05:21:34;98032.88;;;-1.12;100.00
21817;BME280;13247;47.504;7.382;2024-01-10T05:24:19;98031.31;;;-1.05;100.00
21817;BME280;13247;47.504;7.382;2024-01-10T05:27:04;98038.47;;;-0.95;100.00
21817;BME280;13247;47.504;7.382;2024-01-10T05:29:49;98029.09;;;-0.92;100.00
21817;BME280;13247;47.504;7.382;2024-01-10T05:32:34;98025.66;;;-0.92;100.00
21817;BME280;13247;47.504;7.382;2024-01-10T05:35:18;98036.28;;;-0.78;100.00
21817;BME280;13247;47.504;7.382;2024-01-10T05:38:03;98027.50;;;-0.87;100.00
21817;BME280;13247;47.504;7.382;2024-01-10T05:40:48;98024.88;;;-0.88;100.00
21817;BME280;13247;47.504;7.382;2024-01-10T05:43:32;98019.22;;;-0.73;100.00
21817;BME280;13247;47.504;7.382;2024-01-10T05:46:17;98023.41;;;-0.78;100.00
21817;BME280;13247;47.504;7.382;2024-01-10T05:49:04;98023.41;;;-0.78;100.00
21817;BME280;13247;47.504;7.382;2024-01-10T05:51:48;98029.63;;;-0.70;100.00
21817;BME280;13247;47.504;7.382;2024-01-10T05:54:34;98031.81;;;-0.86;100.00
21817;BME280;13247;47.504;7.382;2024-01-10T05:57:19;98033.00;;;-1.07;100.00
21817;BME280;13247;47.504;7.382;2024-01-10T06:00:04;98040.59;;;-1.12;100.00
21817;BME280;13247;47.504;7.382;2024-01-10T06:02:54;98049.91;;;-1.17;100.00
21817;BME280;13247;47.504;7.382;2024-01-10T06:05:39;98041.97;;;-1.26;100.00
21817;BME280;13247;47.504;7.382;2024-01-10T06:08:24;98042.03;;;-1.23;100.00
21817;BME280;13247;47.504;7.382;2024-01-10T06:11:11;98043.50;;;-1.00;100.00
21817;BME280;13247;47.504;7.382;2024-01-10T06:13:55;98038.78;;;-1.16;100.00
21817;BME280;13247;47.504;7.382;2024-01-10T06:16:42;98034.75;;;-1.06;100.00
21817;BME280;13247;47.504;7.382;2024-01-10T06:19:28;98029.06;;;-0.93;100.00
21817;BME280;13247;47.504;7.382;2024-01-10T06:22:12;98024.41;;;-1.08;100.00
21817;BME280;13247;47.504;7.382;2024-01-10T06:24:57;98022.59;;;-1.12;100.00
21817;BME280;13247;47.504;7.382;2024-01-10T06:27:42;98023.44;;;-1.13;100.00
21817;BME280;13247;47.504;7.382;2024-01-10T06:30:27;98026.81;;;-1.14;100.00
21817;BME280;13247;47.504;7.382;2024-01-10T06:33:11;98031.22;;;-1.10;100.00
21817;BME280;13247;47.504;7.382;2024-01-10T06:35:56;98033.75;;;-1.11;100.00
21817;BME280;13247;47.504;7.382;2024-01-10T06:38:41;98026.81;;;-1.14;100.00
21817;BME280;13247;47.504;7.382;2024-01-10T06:41:26;98022.09;;;-1.31;100.00
21817;BME280;13247;47.504;7.382;2024-01-10T06:44:11;98024.72;;;-1.30;100.00
21817;BME280;13247;47.504;7.382;2024-01-10T06:46:56;98017.75;;;-1.34;100.00
21817;BME280;13247;47.504;7.382;2024-01-10T06:49:40;98020.81;;;-1.47;100.00
21817;BME280;13247;47.504;7.382;2024-01-10T06:52:25;98025.97;;;-1.47;100.00
21817;BME280;13247;47.504;7.382;2024-01-10T06:55:09;98032.25;;;-1.37;100.00
21817;BME280;13247;47.504;7.382;2024-01-10T06:57:55;98044.91;;;-1.75;100.00
21817;BME280;13247;47.504;7.382;2024-01-10T07:00:40;98054.31;;;-1.75;100.00
21817;BME280;13247;47.504;7.382;2024-01-10T07:03:26;98056.34;;;-1.65;100.00
21817;BME280;13247;47.504;7.382;2024-01-10T07:06:11;98065.94;;;-1.58;100.00
21817;BME280;13247;47.504;7.382;2024-01-10T07:08:59;98063.38;;;-1.58;100.00
21817;BME280;13247;47.504;7.382;2024-01-10T07:11:44;98057.13;;;-1.97;100.00
21817;BME280;13247;47.504;7.382;2024-01-10T07:14:28;98047.66;;;-2.28;100.00
21817;BME280;13247;47.504;7.382;2024-01-10T07:17:13;98059.69;;;-2.27;100.00
21817;BME280;13247;47.504;7.382;2024-01-10T07:19:57;98055.56;;;-1.92;100.00
21817;BME280;13247;47.504;7.382;2024-01-10T07:22:43;98049.31;;;-1.71;100.00
21817;BME280;13247;47.504;7.382;2024-01-10T07:25:28;98049.88;;;-1.82;100.00
21817;BME280;13247;47.504;7.382;2024-01-10T07:28:13;98056.22;;;-1.99;100.00
21817;BME280;13247;47.504;7.382;2024-01-10T07:30:57;98047.88;;;-1.92;100.00
21817;BME280;13247;47.504;7.382;2024-01-10T07:33:42;98057.13;;;-1.97;100.00
21817;BME280;13247;47.504;7.382;2024-01-10T07:36:27;98050.81;;;-1.79;100.00
21817;BME280;13247;47.504;7.382;2024-01-10T07:39:12;98045.06;;;-1.70;100.00
21817;BME280;13247;47.504;7.382;2024-01-10T07:42:00;98053.91;;;-1.61;100.00
21817;BME280;13247;47.504;7.382;2024-01-10T07:44:47;98061.47;;;-1.65;100.00
21817;BME280;13247;47.504;7.382;2024-01-10T07:47:33;98050.03;;;-1.76;100.00
21817;BME280;13247;47.504;7.382;2024-01-10T07:50:24;98063.56;;;-2.11;100.00
21817;BME280;13247;47.504;7.382;2024-01-10T07:53:12;98073.09;;;-2.35;100.00
21817;BME280;13247;47.504;7.382;2024-01-10T07:55:57;98070.03;;;-2.79;100.00
21817;BME280;13247;47.504;7.382;2024-01-10T07:58:42;98076.28;;;-2.71;100.00
21817;BME280;13247;47.504;7.382;2024-01-10T08:01:26;98069.69;;;-2.63;100.00
21817;BME280;13247;47.504;7.382;2024-01-10T08:04:11;98073.03;;;-2.92;100.00
21817;BME280;13247;47.504;7.382;2024-01-10T08:06:55;98076.09;;;-3.02;100.00
21817;BME280;13247;47.504;7.382;2024-01-10T08:09:40;98078.00;;;-2.70;100.00
21817;BME280;13247;47.504;7.382;2024-01-10T08:12:25;98079.59;;;-2.47;100.00
21817;BME280;13247;47.504;7.382;2024-01-10T08:15:10;98085.31;;;-2.28;100.00
21817;BME280;13247;47.504;7.382;2024-01-10T08:17:55;98084.44;;;-2.29;100.00
21817;BME280;13247;47.504;7.382;2024-01-10T08:20:39;98077.59;;;-2.00;100.00
21817;BME280;13247;47.504;7.382;2024-01-10T08:23:24;98091.13;;;-2.06;100.00
21817;BME280;13247;47.504;7.382;2024-01-10T08:26:09;98082.66;;;-2.03;100.00
21817;BME280;13247;47.504;7.382;2024-01-10T08:28:54;98090.53;;;-1.97;100.00
21817;BME280;13247;47.504;7.382;2024-01-10T08:31:39;98093.34;;;-2.45;100.00
21817;BME280;13247;47.504;7.382;2024-01-10T08:34:24;98092.88;;;-2.33;100.00
21817;BME280;13247;47.504;7.382;2024-01-10T08:37:08;98092.09;;;-2.02;100.00
21817;BME280;13247;47.504;7.382;2024-01-10T08:39:54;98086.41;;;-1.92;100.00
21817;BME280;13247;47.504;7.382;2024-01-10T08:42:39;98092.84;;;-1.77;100.00
21817;BME280;13247;47.504;7.382;2024-01-10T08:45:24;98094.81;;;-1.68;100.00
21817;BME280;13247;47.504;7.382;2024-01-10T08:48:09;98094.16;;;-1.61;100.00
21817;BME280;13247;47.504;7.382;2024-01-10T08:50:55;98093.91;;;-1.39;100.00
21817;BME280;13247;47.504;7.382;2024-01-10T08:53:40;98080.19;;;-1.07;100.00
21817;BME280;13247;47.504;7.382;2024-01-10T08:56:25;98077.25;;;-0.88;100.00
21817;BME280;13247;47.504;7.382;2024-01-10T08:59:11;98068.25;;;-0.70;100.00
21817;BME280;13247;47.504;7.382;2024-01-10T09:01:57;98072.25;;;-0.82;100.00
21817;BME280;13247;47.504;7.382;2024-01-10T09:04:41;98072.22;;;-0.83;100.00
21817;BME280;13247;47.504;7.382;2024-01-10T09:07:26;98075.88;;;-0.73;100.00
21817;BME280;13247;47.504;7.382;2024-01-10T09:10:11;98074.53;;;-0.59;100.00
21817;BME280;13247;47.504;7.382;2024-01-10T09:12:58;98079.03;;;-0.85;100.00
21817;BME280;13247;47.504;7.382;2024-01-10T09:15:43;98090.25;;;-0.83;100.00
21817;BME280;13247;47.504;7.382;2024-01-10T09:18:27;98098.28;;;-0.69;100.00
21817;BME280;13247;47.504;7.382;2024-01-10T09:21:12;98093.50;;;-0.54;100.00
21817;BME280;13247;47.504;7.382;2024-01-10T09:23:56;98089.75;;;-0.68;100.00
21817;BME280;13247;47.504;7.382;2024-01-10T09:26:41;98090.34;;;-0.78;100.00
21817;BME280;13247;47.504;7.382;2024-01-10T09:29:26;98094.66;;;-0.77;100.00
21817;BME280;13247;47.504;7.382;2024-01-10T09:32:11;98104.34;;;-0.67;100.00
21817;BME280;13247;47.504;7.382;2024-01-10T09:34:56;98106.28;;;-0.59;100.00
21817;BME280;13247;47.504;7.382;2024-01-10T09:37:41;98110.47;;;-0.64;100.00
21817;BME280;13247;47.504;7.382;2024-01-10T09:40:25;98118.72;;;-0.75;100.00
21817;BME280;13247;47.504;7.382;2024-01-10T09:43:12;98119.06;;;-0.63;100.00
21817;BME280;13247;47.504;7.382;2024-01-10T09:45:58;98122.59;;;-0.58;100.00
21817;BME280;13247;47.504;7.382;2024-01-10T09:48:43;98122.69;;;-0.55;100.00
21817;BME280;13247;47.504;7.382;2024-01-10T09:51:28;98124.28;;;-0.59;100.00
21817;BME280;13247;47.504;7.382;2024-01-10T09:54:15;98126.22;;;-0.50;100.00
21817;BME280;13247;47.504;7.382;2024-01-10T09:57:00;98116.69;;;-0.54;100.00
21817;BME280;13247;47.504;7.382;2024-01-10T09:59:44;98123.50;;;-0.56;100.00
21817;BME280;13247;47.504;7.382;2024-01-10T10:02:32;98133.91;;;-0.52;100.00
21817;BME280;13247;47.504;7.382;2024-01-10T10:05:18;98131.88;;;-0.29;100.00
21817;BME280;13247;47.504;7.382;2024-01-10T10:08:02;98128.88;;;-0.47;100.00
21817;BME280;13247;47.504;7.382;2024-01-10T10:10:49;98120.38;;;-0.45;100.00
21817;BME280;13247;47.504;7.382;2024-01-10T10:13:34;98124.75;;;-0.41;100.00
21817;BME280;13247;47.504;7.382;2024-01-10T10:16:25;98112.94;;;-0.31;100.00
21817;BME280;13247;47.504;7.382;2024-01-10T10:19:10;98120.38;;;-0.45;100.00
21817;BME280;13247;47.504;7.382;2024-01-10T10:22:08;98111.75;;;-0.47;100.00
21817;BME280;13247;47.504;7.382;2024-01-10T10:24:53;98107.03;;;-0.27;100.00
21817;BME280;13247;47.504;7.382;2024-01-10T10:27:38;98104.19;;;-0.38;100.00
21817;BME280;13247;47.504;7.382;2024-01-10T10:30:23;98108.78;;;-0.26;100.00
21817;BME280;13247;47.504;7.382;2024-01-10T10:33:09;98114.00;;;-0.23;100.00
21817;BME280;13247;47.504;7.382;2024-01-10T10:35:54;98113.91;;;-0.28;100.00
21817;BME280;13247;47.504;7.382;2024-01-10T10:38:40;98109.78;;;-0.21;100.00
21817;BME280;13247;47.504;7.382;2024-01-10T10:41:26;98118.66;;;-0.09;100.00
21817;BME280;13247;47.504;7.382;2024-01-10T10:44:13;98112.84;;;0.00;100.00
21817;BME280;13247;47.504;7.382;2024-01-10T10:47:05;98111.97;;;0.01;100.00
21817;BME280;13247;47.504;7.382;2024-01-10T10:49:53;98106.50;;;0.26;100.00
21817;BME280;13247;47.504;7.382;2024-01-10T10:52:41;98101.81;;;0.49;100.00
21817;BME280;13247;47.504;7.382;2024-01-10T10:55:29;98097.72;;;0.58;100.00
21817;BME280;13247;47.504;7.382;2024-01-10T10:58:15;98107.69;;;0.84;100.00
21817;BME280;13247;47.504;7.382;2024-01-10T11:01:01;98094.25;;;0.56;100.00
21817;BME280;13247;47.504;7.382;2024-01-10T11:03:47;98101.56;;;0.35;100.00
21817;BME280;13247;47.504;7.382;2024-01-10T11:06:33;98103.06;;;0.67;100.00
21817;BME280;13247;47.504;7.382;2024-01-10T11:09:19;98099.50;;;0.61;100.00
21817;BME280;13247;47.504;7.382;2024-01-10T11:24:32;98092.69;;;0.64;100.00
21817;BME280;13247;47.504;7.382;2024-01-10T11:27:17;98091.53;;;0.95;100.00
21817;BME280;13247;47.504;7.382;2024-01-10T11:30:03;98094.53;;;0.71;100.00
21817;BME280;13247;47.504;7.382;2024-01-10T11:32:50;98084.34;;;0.77;100.00
21817;BME280;13247;47.504;7.382;2024-01-10T11:35:34;98086.34;;;0.94;100.00
21817;BME280;13247;47.504;7.382;2024-01-10T11:38:20;98080.38;;;0.96;100.00
21817;BME280;13247;47.504;7.382;2024-01-10T11:41:05;98073.81;;;0.68;100.00
21817;BME280;13247;47.504;7.382;2024-01-10T11:46:58;98062.72;;;0.74;100.00
21817;BME280;13247;47.504;7.382;2024-01-10T11:49:58;98066.47;;;0.90;100.00
21817;BME280;13247;47.504;7.382;2024-01-10T11:52:42;98064.06;;;1.51;100.00
21817;BME280;13247;47.504;7.382;2024-01-10T11:55:46;98066.00;;;1.63;100.00
21817;BME280;13247;47.504;7.382;2024-01-10T11:58:31;98072.75;;;1.54;100.00
21817;BME280;13247;47.504;7.382;2024-01-10T12:01:16;98073.97;;;1.22;100.00
21817;BME280;13247;47.504;7.382;2024-01-10T12:04:01;98074.22;;;1.39;100.00
21817;BME280;13247;47.504;7.382;2024-01-10T12:06:47;98075.97;;;0.91;100.00
21817;BME280;13247;47.504;7.382;2024-01-10T12:09:31;98085.00;;;1.14;100.00
21817;BME280;13247;47.504;7.382;2024-01-10T12:12:17;98075.13;;;0.93;100.00
21817;BME280;13247;47.504;7.382;2024-01-10T12:15:02;98079.09;;;0.74;100.00
21817;BME280;13247;47.504;7.382;2024-01-10T12:17:47;98079.59;;;0.55;100.00
21817;BME280;13247;47.504;7.382;2024-01-10T12:20:32;98082.84;;;0.47;100.00
21817;BME280;13247;47.504;7.382;2024-01-10T12:23:16;98082.47;;;0.70;100.00
21817;BME280;13247;47.504;7.382;2024-01-10T12:26:08;98086.53;;;0.59;100.00
21817;BME280;13247;47.504;7.382;2024-01-10T12:28:55;98086.47;;;0.55;100.00
21817;BME280;13247;47.504;7.382;2024-01-10T12:31:40;98086.22;;;0.43;100.00
21817;BME280;13247;47.504;7.382;2024-01-10T12:34:25;98076.28;;;0.62;100.00
21817;BME280;13247;47.504;7.382;2024-01-10T12:37:11;98088.34;;;0.63;100.00
21817;BME280;13247;47.504;7.382;2024-01-10T12:39:56;98095.34;;;0.69;100.00
21817;BME280;13247;47.504;7.382;2024-01-10T12:42:41;98086.50;;;0.56;100.00
21817;BME280;13247;47.504;7.382;2024-01-10T12:45:26;98086.94;;;0.79;100.00
21817;BME280;13247;47.504;7.382;2024-01-10T12:48:13;98090.06;;;1.08;100.00
21817;BME280;13247;47.504;7.382;2024-01-10T12:51:01;98096.13;;;1.11;100.00
21817;BME280;13247;47.504;7.382;2024-01-10T12:53:50;98099.44;;;1.03;100.00
21817;BME280;13247;47.504;7.382;2024-01-10T12:56:34;98098.47;;;0.98;100.00
21817;BME280;13247;47.504;7.382;2024-01-10T12:59:19;98100.81;;;0.86;100.00
21817;BME280;13247;47.504;7.382;2024-01-10T13:02:04;98097.06;;;0.68;100.00
21817;BME280;13247;47.504;7.382;2024-01-10T13:04:49;98100.09;;;0.93;100.00
21817;BME280;13247;47.504;7.382;2024-01-10T13:07:33;98097.84;;;0.66;100.00
21817;BME280;13247;47.504;7.382;2024-01-10T13:10:18;98098.03;;;0.75;100.00
21817;BME280;13247;47.504;7.382;2024-01-10T13:13:03;98102.41;;;0.79;100.00
21817;BME280;13247;47.504;7.382;2024-01-10T13:15:48;98099.06;;;0.83;100.00
21817;BME280;13247;47.504;7.382;2024-01-10T13:18:33;98109.84;;;1.09;100.00
21817;BME280;13247;47.504;7.382;2024-01-10T13:21:18;98097.84;;;0.64;100.00
21817;BME280;13247;47.504;7.382;2024-01-10T13:24:03;98112.41;;;0.61;100.00
21817;BME280;13247;47.504;7.382;2024-01-10T13:26:48;98101.41;;;0.71;100.00
21817;BME280;13247;47.504;7.382;2024-01-10T13:29:32;98108.28;;;0.70;100.00
21817;BME280;13247;47.504;7.382;2024-01-10T13:32:19;98103.47;;;0.45;100.00
21817;BME280;13247;47.504;7.382;2024-01-10T13:35:04;98111.88;;;0.35;100.00
21817;BME280;13247;47.504;7.382;2024-01-10T13:37:49;98108.75;;;0.51;100.00
21817;BME280;13247;47.504;7.382;2024-01-10T13:40:34;98103.09;;;0.70;100.00
21817;BME280;13247;47.504;7.382;2024-01-10T13:43:18;98111.41;;;0.54;100.00
21817;BME280;13247;47.504;7.382;2024-01-10T13:46:03;98104.25;;;0.41;100.00
21817;BME280;13247;47.504;7.382;2024-01-10T13:48:48;98109.97;;;0.68;100.00
21817;BME280;13247;47.504;7.382;2024-01-10T13:51:33;98114.72;;;0.49;100.00
21817;BME280;13247;47.504;7.382;2024-01-10T13:54:18;98105.97;;;0.42;100.00
21817;BME280;13247;47.504;7.382;2024-01-10T13:57:03;98113.19;;;0.17;100.00
21817;BME280;13247;47.504;7.382;2024-01-10T13:59:48;98120.78;;;-0.27;100.00
21817;BME280;13247;47.504;7.382;2024-01-10T14:02:35;98132.63;;;0.03;100.00
21817;BME280;13247;47.504;7.382;2024-01-10T14:05:20;98125.63;;;-0.03;100.00
21817;BME280;13247;47.504;7.382;2024-01-10T14:08:05;98128.91;;;-0.10;100.00
21817;BME280;13247;47.504;7.382;2024-01-10T14:10:49;98130.00;;;-0.01;100.00
21817;BME280;13247;47.504;7.382;2024-01-10T14:13:34;98121.97;;;0.26;100.00
21817;BME280;13247;47.504;7.382;2024-01-10T14:16:19;98110.25;;;0.00;100.00
21817;BME280;13247;47.504;7.382;2024-01-10T14:19:04;98115.78;;;0.18;100.00
21817;BME280;13247;47.504;7.382;2024-01-10T14:21:48;98107.53;;;0.34;100.00
21817;BME280;13247;47.504;7.382;2024-01-10T14:24:33;98096.59;;;0.44;100.00
21817;BME280;13247;47.504;7.382;2024-01-10T14:27:17;98091.88;;;0.67;100.00
21817;BME280;13247;47.504;7.382;2024-01-10T14:30:02;98093.44;;;0.59;100.00
21817;BME280;13247;47.504;7.382;2024-01-10T14:32:47;98091.88;;;0.67;100.00
21817;BME280;13247;47.504;7.382;2024-01-10T14:35:34;98094.06;;;0.91;100.00
21817;BME280;13247;47.504;7.382;2024-01-10T14:38:18;98089.09;;;1.01;100.00
21817;BME280;13247;47.504;7.382;2024-01-10T14:41:03;98087.38;;;1.03;100.00
21817;BME280;13247;47.504;7.382;2024-01-10T14:43:48;98080.72;;;1.16;100.00